Time;durP1;ratioP1;P1;durP2;ratioP2;P2;SDS_P1;SDS_P2;PMS_P1;PMS_P2;Temp;Humidity;BMP_temperature;BMP_pressure;BME280_temperature;BME280_humidity;BME280_pressure;Samples;Min_cycle;Max_cycle;Signal;HPM_P1;HPM_P2
2021/01/15 00:01:36;;;;;;;5.22;2.05;;;;;;;-0.97;72.15;98858.94;4983819;28;20034;-69
2021/01/15 00:04:02;;;;;;;6.05;1.40;;;;;;;-0.97;71.46;98850.97;4990682;28;20066;-69
2021/01/15 00:06:28;;;;;;;3.95;2.10;;;;;;;-0.94;71.36;98856.03;4992154;28;20034;-69
2021/01/15 00:08:54;;;;;;;3.55;1.95;;;;;;;-0.97;71.31;98862.47;4993284;28;20392;-68
2021/01/15 00:11:24;;;;;;;5.35;1.92;;;;;;;-0.98;71.13;98854.59;4993102;28;20030;-69
2021/01/15 00:13:50;;;;;;;5.15;1.70;;;;;;;-1.03;71.13;98859.47;4992653;28;20034;-69
2021/01/15 00:16:20;;;;;;;4.25;2.03;;;;;;;-1.05;71.78;98872.84;4992943;28;20096;-69
2021/01/15 00:18:45;;;;;;;4.13;1.83;;;;;;;-1.07;72.22;98872.16;4993474;28;20038;-69
2021/01/15 00:21:33;;;;;;;3.75;1.83;;;;;;;-1.23;72.09;98851.34;4993763;28;20049;-70
2021/01/15 00:24:04;;;;;;;3.42;1.80;;;;;;;-1.22;72.03;98861.00;4993574;28;20069;-69
2021/01/15 00:26:31;;;;;;;2.38;1.80;;;;;;;-1.16;71.17;98863.13;4992363;28;20034;-68
2021/01/15 00:28:57;;;;;;;2.22;1.60;;;;;;;-1.19;72.16;98865.22;4993102;28;20042;-70
2021/01/15 00:31:36;;;;;;;3.58;2.05;;;;;;;-1.23;72.19;98872.59;4991779;28;20373;-68
2021/01/15 00:34:01;;;;;;;;;;;;;;;-1.25;71.86;98863.06;4990477;28;20499;-69
2021/01/15 00:36:26;;;;;;;3.97;1.90;;;;;;;-1.25;72.12;98869.22;4992500;28;20017;-69
2021/01/15 00:38:52;;;;;;;4.93;1.70;;;;;;;-1.53;72.65;98838.78;4993581;28;20034;-69
2021/01/15 00:41:17;;;;;;;4.45;2.03;;;;;;;-1.28;71.31;98879.22;4993547;28;20061;-69
2021/01/15 00:43:43;;;;;;;6.32;1.77;;;;;;;-1.32;71.70;98882.13;4990658;28;20042;-69
2021/01/15 00:46:31;;;;;;;4.55;1.77;;;;;;;-1.36;70.76;98869.28;4992247;28;20092;-70
2021/01/15 00:48:58;;;;;;;6.63;1.98;;;;;;;-1.38;71.70;98872.03;4990682;28;20121;-69
2021/01/15 00:51:24;;;;;;;2.28;1.65;;;;;;;-1.33;71.97;98877.81;4990026;28;20494;-70
2021/01/15 00:53:49;;;;;;;5.28;1.70;;;;;;;-1.47;72.19;98880.72;4993286;28;20037;-69
2021/01/15 00:56:18;;;;;;;5.15;2.08;;;;;;;-1.66;73.41;98873.44;4992014;28;20030;-70
2021/01/15 00:58:50;;;;;;;4.93;2.40;;;;;;;-1.82;73.83;98875.66;4992345;28;20361;-70
2021/01/15 01:01:17;;;;;;;3.00;1.92;;;;;;;-2.02;75.08;98864.84;4983731;28;20038;-69
2021/01/15 01:03:43;;;;;;;3.35;1.67;;;;;;;-2.02;75.41;98885.19;4994097;28;20114;-70
2021/01/15 01:06:17;;;;;;;3.22;1.65;;;;;;;-2.13;76.22;98883.38;4989362;28;20026;-69
2021/01/15 01:08:42;;;;;;;3.50;1.60;;;;;;;-2.08;74.78;98880.38;4992755;28;20038;-69
2021/01/15 01:11:11;;;;;;;5.70;1.85;;;;;;;-1.86;73.47;98875.06;4992749;28;20026;-69
2021/01/15 01:13:36;;;;;;;2.38;1.50;;;;;;;-1.76;72.99;98885.75;4992809;28;20105;-70
2021/01/15 01:16:02;;;;;;;4.55;1.77;;;;;;;-1.76;72.23;98861.88;4991317;28;20432;-70
2021/01/15 01:18:27;;;;;;;2.60;1.60;;;;;;;-1.53;70.84;98888.38;4993401;28;20572;-69
2021/01/15 01:20:52;;;;;;;2.70;1.55;;;;;;;-1.44;71.35;98892.91;4993380;28;20028;-70
2021/01/15 01:23:17;;;;;;;2.85;1.58;;;;;;;-1.48;70.91;98894.16;4992675;28;20026;-69
2021/01/15 01:25:43;;;;;;;3.17;1.88;;;;;;;-1.63;70.86;98867.03;4990261;28;20408;-70
2021/01/15 01:28:08;;;;;;;5.70;1.55;;;;;;;-1.53;70.49;98878.59;4989794;28;20037;-69
2021/01/15 01:30:33;;;;;;;2.92;1.50;;;;;;;-1.42;70.48;98896.28;4987970;28;20031;-69
2021/01/15 01:32:59;;;;;;;2.90;1.70;;;;;;;-1.52;71.05;98887.38;4989823;28;20080;-70
2021/01/15 01:35:24;;;;;;;2.25;1.40;;;;;;;-1.47;70.59;98894.00;4989134;28;20031;-69
2021/01/15 01:37:49;;;;;;;3.13;1.70;;;;;;;-1.65;70.86;98876.94;4997953;28;20038;-70
2021/01/15 01:40:15;;;;;;;4.03;1.50;;;;;;;-1.55;70.98;98880.53;4987616;28;20729;-70
2021/01/15 01:42:41;;;;;;;4.90;1.58;;;;;;;-1.52;70.39;98892.69;4986841;28;20085;-70
2021/01/15 01:45:07;;;;;;;10.15;3.47;;;;;;;-1.60;70.05;98874.75;4989235;28;20042;-69
2021/01/15 01:47:32;;;;;;;4.55;1.90;;;;;;;-1.66;71.17;98896.47;4990321;28;20026;-69
2021/01/15 01:49:58;;;;;;;3.90;1.42;;;;;;;-1.70;71.15;98895.03;4989707;28;20041;-70
2021/01/15 01:52:24;;;;;;;3.72;1.48;;;;;;;-1.78;72.08;98901.81;4988921;28;20042;-70
2021/01/15 01:54:51;;;;;;;4.65;1.60;;;;;;;-2.05;72.67;98885.44;4989456;28;20474;-69
2021/01/15 01:57:16;;;;;;;4.05;1.13;;;;;;;-2.09;73.13;98900.75;4987906;28;20121;-69
2021/01/15 01:59:41;;;;;;;2.90;1.52;;;;;;;-2.27;73.75;98923.38;4988954;28;20105;-69
2021/01/15 02:02:07;;;;;;;2.47;1.58;;;;;;;-2.42;75.48;98912.16;4988111;28;20101;-69
2021/01/15 02:04:32;;;;;;;2.95;1.55;;;;;;;-2.55;76.30;98912.25;4988742;28;20027;-69
2021/01/15 02:06:58;;;;;;;5.57;1.45;;;;;;;-2.54;76.61;98927.22;4992204;28;20018;-70
2021/01/15 02:09:32;;;;;;;1.98;1.60;;;;;;;-2.61;77.25;98920.69;4993864;28;20038;-69
2021/01/15 02:12:09;;;;;;;2.28;1.52;;;;;;;-2.67;77.55;98931.75;4991647;28;20500;-70
2021/01/15 02:14:44;;;;;;;3.35;1.70;;;;;;;-2.75;77.52;98924.41;4986196;28;20022;-69
2021/01/15 02:17:16;;;;;;;1.70;1.02;;;;;;;-2.85;78.08;98923.41;4989507;28;20496;-69
2021/01/15 02:20:03;;;;;;;2.30;1.42;;;;;;;-2.92;77.60;98908.91;4976849;28;20121;-70
2021/01/15 02:22:58;;;;;;;2.97;1.58;;;;;;;-2.85;78.20;98925.22;4986139;28;20182;-70
2021/01/15 02:25:27;;;;;;;3.17;1.60;;;;;;;-2.93;78.84;98931.91;4991343;28;20057;-70
2021/01/15 02:28:33;;;;;;;2.03;1.17;;;;;;;-3.02;78.95;98931.75;4992635;28;20085;-70
2021/01/15 02:31:22;;;;;;;3.38;1.50;;;;;;;-3.05;79.00;98930.16;4990683;28;20084;-70
2021/01/15 02:34:21;;;;;;;4.63;1.63;;;;;;;-3.07;79.37;98926.78;4992674;28;20060;-69
2021/01/15 02:37:03;;;;;;;5.18;1.48;;;;;;;-3.00;78.55;98933.31;5004017;28;20133;-70
2021/01/15 02:39:42;;;;;;;3.20;1.38;;;;;;;-3.03;77.64;98920.31;4989655;28;20113;-70
2021/01/15 02:42:09;;;;;;;4.38;2.10;;;;;;;-2.98;77.60;98928.75;4991302;28;20034;-69
2021/01/15 02:44:38;;;;;;;2.33;1.50;;;;;;;-2.98;77.78;98923.47;4992412;28;20827;-70
2021/01/15 02:47:07;;;;;;;2.63;1.40;;;;;;;-3.08;78.07;98938.34;4992188;28;20034;-69
2021/01/15 02:49:34;;;;;;;1.80;1.17;;;;;;;-3.15;77.94;98937.09;4991568;28;20034;-69
2021/01/15 02:51:59;;;;;;;2.10;1.35;;;;;;;-3.21;78.54;98945.50;4992008;28;20042;-70
2021/01/15 02:54:25;;;;;;;3.38;1.80;;;;;;;-3.25;79.38;98941.38;4990923;28;20049;-70
2021/01/15 02:56:50;;;;;;;3.00;1.50;;;;;;;-3.34;79.38;98956.97;4990149;28;20041;-70
2021/01/15 02:59:15;;;;;;;3.40;1.85;;;;;;;-3.38;79.74;98944.94;4991374;28;20034;-69
2021/01/15 03:01:58;;;;;;;2.40;1.60;;;;;;;-3.38;79.76;98952.00;4987316;28;20034;-70
2021/01/15 03:04:34;;;;;;;2.42;1.45;;;;;;;-3.40;79.88;98946.00;4989749;28;20091;-69
2021/01/15 03:07:02;;;;;;;2.35;1.50;;;;;;;-3.38;79.11;98959.94;5013799;28;20093;-70
2021/01/15 03:09:39;;;;;;;4.10;1.63;;;;;;;-3.58;79.06;98919.09;5015616;28;20042;-69
2021/01/15 03:12:06;;;;;;;3.65;1.40;;;;;;;-3.22;78.60;98962.31;5025043;28;20030;-69
2021/01/15 03:14:35;;;;;;;3.47;1.63;;;;;;;-3.33;78.13;98961.31;5004842;28;20768;-69
2021/01/15 03:17:04;;;;;;;4.40;1.75;;;;;;;-3.41;78.71;98954.88;5010216;28;20026;-69
2021/01/15 03:19:30;;;;;;;1.60;1.23;;;;;;;-3.29;79.01;98969.03;4984775;28;20068;-70
2021/01/15 03:21:55;;;;;;;5.97;1.83;;;;;;;-3.29;78.67;98963.75;4991518;28;20018;-69
2021/01/15 03:24:21;;;;;;;5.18;1.98;;;;;;;-3.26;79.52;98955.56;4993316;28;20038;-69
2021/01/15 03:26:46;;;;;;;3.83;1.92;;;;;;;-3.31;79.47;98959.38;4991682;28;20455;-69
2021/01/15 03:29:13;;;;;;;6.90;1.85;;;;;;;-3.27;78.48;98956.53;4989120;28;20026;-69
2021/01/15 03:31:42;;;;;;;4.20;2.00;;;;;;;-3.03;77.54;98962.66;4990322;28;20033;-68
2021/01/15 03:34:08;;;;;;;3.15;1.33;;;;;;;-3.06;77.52;98968.19;4979509;28;20559;-69
2021/01/15 03:36:34;;;;;;;4.55;1.92;;;;;;;-3.12;77.34;98968.63;4989650;28;20044;-69
2021/01/15 03:38:59;;;;;;;3.00;1.80;;;;;;;-3.26;77.72;98974.94;4990050;28;20030;-69
2021/01/15 03:41:25;;;;;;;3.50;1.90;;;;;;;-3.35;78.25;98976.47;4990612;28;20045;-69
2021/01/15 03:43:50;;;;;;;3.90;1.85;;;;;;;-3.37;78.42;98986.28;4989385;28;20419;-69
2021/01/15 03:46:19;;;;;;;3.30;1.90;;;;;;;-3.39;79.19;98993.50;4990745;28;20054;-69
2021/01/15 03:48:45;;;;;;;2.92;1.58;;;;;;;-3.51;79.32;98989.09;4990314;28;20763;-69
2021/01/15 03:51:11;;;;;;;5.32;2.05;;;;;;;-3.51;79.83;98983.81;4990394;28;20707;-68
2021/01/15 03:53:36;;;;;;;5.25;2.45;;;;;;;-3.54;80.16;98986.66;4990703;28;20034;-69
2021/01/15 03:56:02;;;;;;;3.53;2.00;;;;;;;-3.48;78.86;98986.25;4991087;28;20045;-69
2021/01/15 03:58:27;;;;;;;4.25;2.00;;;;;;;-3.41;79.07;98990.09;4990470;28;20108;-68
2021/01/15 04:00:52;;;;;;;6.88;2.50;;;;;;;-3.35;78.91;98999.44;4990853;28;20780;-69
2021/01/15 04:03:18;;;;;;;5.97;2.17;;;;;;;-3.35;78.61;99010.00;4986827;28;20397;-69
2021/01/15 04:05:43;;;;;;;3.85;2.22;;;;;;;-3.48;78.83;99002.09;4987626;28;20037;-69
2021/01/15 04:08:08;;;;;;;6.40;2.33;;;;;;;-3.45;78.75;99007.16;4983033;28;20065;-69
2021/01/15 04:10:33;;;;;;;5.57;2.50;;;;;;;-3.39;78.44;99009.38;4991948;28;20034;-68
2021/01/15 04:12:59;;;;;;;4.82;2.17;;;;;;;-3.46;78.56;99013.41;4990510;28;20088;-69
2021/01/15 04:15:24;;;;;;;4.38;2.47;;;;;;;-3.50;79.48;99016.41;4989858;28;20499;-69
2021/01/15 04:17:49;;;;;;;7.00;2.67;;;;;;;-3.54;78.89;99006.03;4987785;28;20044;-69
2021/01/15 04:20:15;;;;;;;4.82;2.28;;;;;;;-3.54;78.96;99015.75;4991077;28;20032;-69
2021/01/15 04:22:47;;;;;;;6.45;2.97;;;;;;;-3.60;79.26;99008.25;4980291;28;20065;-69
2021/01/15 04:25:14;;;;;;;3.78;2.35;;;;;;;-3.73;80.09;99000.34;4990366;28;20081;-68
2021/01/15 04:27:40;;;;;;;5.82;2.42;;;;;;;-3.72;80.02;99014.41;4987534;28;20034;-69
2021/01/15 04:30:08;;;;;;;6.05;2.25;;;;;;;-3.68;79.71;99014.09;4989773;28;20066;-69
2021/01/15 04:32:34;;;;;;;7.00;2.60;;;;;;;-3.73;79.66;99024.13;4990104;28;20018;-68
2021/01/15 04:35:01;;;;;;;5.43;2.20;;;;;;;-3.79;79.67;99025.41;4990188;28;20044;-69
2021/01/15 04:37:26;;;;;;;3.20;2.20;;;;;;;-3.85;80.15;99023.22;4988364;28;20042;-69
2021/01/15 04:39:51;;;;;;;5.28;2.83;;;;;;;-3.91;80.56;99020.97;5005209;28;20085;-69
2021/01/15 04:42:18;;;;;;;6.07;2.92;;;;;;;-3.87;80.01;99025.13;4989558;28;20073;-68
2021/01/15 04:44:46;;;;;;;5.15;2.70;;;;;;;-3.85;79.92;99030.28;4989172;28;20038;-69
2021/01/15 04:47:12;;;;;;;7.32;3.13;;;;;;;-3.96;80.70;99017.81;4989744;28;20038;-68
2021/01/15 04:49:39;;;;;;;4.93;2.65;;;;;;;-3.94;80.49;99031.78;4988690;28;20103;-68
2021/01/15 04:52:10;;;;;;;8.60;3.08;;;;;;;-4.02;80.81;99037.56;4989303;28;20041;-68
2021/01/15 04:54:57;;;;;;;5.30;3.00;;;;;;;-4.09;80.84;99040.75;4989421;28;20113;-69
2021/01/15 04:57:23;;;;;;;7.82;3.20;;;;;;;-4.22;81.67;99046.88;4988643;28;20176;-69
2021/01/15 04:59:49;;;;;;;6.35;3.45;;;;;;;-4.25;81.83;99043.59;4988691;28;20141;-68
2021/01/15 05:02:16;;;;;;;6.57;3.47;;;;;;;-4.34;82.05;99031.88;4987983;28;20540;-69
2021/01/15 05:04:42;;;;;;;6.80;3.78;;;;;;;-4.37;82.30;99021.50;4986238;28;20046;-71
2021/01/15 05:07:09;;;;;;;6.13;3.45;;;;;;;-4.18;81.76;99042.22;4982172;28;20109;-71
2021/01/15 05:09:43;;;;;;;5.88;3.13;;;;;;;-4.11;80.97;99054.09;4984401;28;20038;-71
2021/01/15 05:12:13;;;;;;;5.63;2.90;;;;;;;-4.15;80.31;99033.25;4985821;28;20037;-72
2021/01/15 05:14:41;;;;;;;9.68;3.60;;;;;;;-4.10;80.74;99041.72;4985266;28;20831;-73
2021/01/15 05:17:07;;;;;;;7.63;3.75;;;;;;;-4.08;80.86;99053.03;4984356;28;20031;-72
2021/01/15 05:19:41;;;;;;;8.07;3.15;;;;;;;-4.19;80.83;99051.13;4979930;28;20033;-72
2021/01/15 05:22:15;;;;;;;7.15;3.90;;;;;;;-4.27;81.55;99056.91;4982239;28;20117;-75
2021/01/15 05:24:41;;;;;;;8.23;3.60;;;;;;;-4.39;81.97;99052.44;4982876;28;20031;-74
2021/01/15 05:30:23;;;;;;;7.03;3.87;;;;;;;-4.51;82.59;99074.38;4989182;28;20081;-74
2021/01/15 05:32:51;;;;;;;11.20;4.03;;;;;;;-4.51;83.76;99082.31;4990555;28;20275;-74
2021/01/15 05:35:16;;;;;;;10.15;4.75;;;;;;;-4.55;84.07;99079.03;5012699;28;20061;-75
2021/01/15 05:37:42;;;;;;;10.55;4.10;;;;;;;-4.53;83.91;99084.19;5011991;28;20021;-75
2021/01/15 05:40:09;;;;;;;8.00;4.80;;;;;;;-4.73;84.65;99075.81;5010008;28;20034;-73
2021/01/15 05:42:51;;;;;;;13.50;5.35;;;;;;;-4.70;85.19;99086.16;5015781;28;20129;-75
2021/01/15 05:45:16;;;;;;;9.27;4.72;;;;;;;-4.53;85.48;99092.13;5010365;28;20015;-75
2021/01/15 05:47:46;;;;;;;10.80;5.18;;;;;;;-4.49;85.13;99101.53;4996851;28;20068;-76
2021/01/15 05:50:15;;;;;;;14.32;5.97;;;;;;;-4.34;85.22;99113.72;5000134;28;20373;-73
2021/01/15 05:52:59;;;;;;;9.48;5.53;;;;;;;-4.37;85.23;99107.81;5002140;28;20362;-74
2021/01/15 05:55:25;;;;;;;10.15;5.28;;;;;;;-4.36;85.80;99123.56;4985021;28;20141;-72
2021/01/15 05:57:51;;;;;;;11.00;5.30;;;;;;;-4.43;85.68;99116.97;4992690;28;20520;-73
2021/01/15 06:00:29;;;;;;;10.05;5.43;;;;;;;-4.48;86.57;99132.28;4995014;28;20026;-71
2021/01/15 06:02:57;;;;;;;13.40;6.25;;;;;;;-4.53;86.36;99115.88;4987185;28;20022;-71
2021/01/15 06:05:24;;;;;;;11.77;5.10;;;;;;;-4.24;86.12;99122.75;4995781;28;20030;-71
2021/01/15 06:07:57;;;;;;;13.52;6.30;;;;;;;-4.22;86.27;99115.56;4993812;28;20042;-70
2021/01/15 06:10:27;;;;;;;13.75;7.07;;;;;;;-4.30;85.72;99122.28;4994307;28;20045;-70
2021/01/15 06:12:53;;;;;;;11.93;7.07;;;;;;;-4.35;85.75;99130.50;4995719;28;20030;-70
2021/01/15 06:15:19;;;;;;;12.52;5.80;;;;;;;-4.31;86.46;99115.31;4986342;28;20030;-69
2021/01/15 06:17:52;;;;;;;19.25;6.57;;;;;;;-4.31;86.07;99132.00;4990802;28;20030;-72
2021/01/15 06:20:19;;;;;;;15.25;6.00;;;;;;;-4.21;85.35;99142.84;4993082;28;20037;-72
2021/01/15 06:22:48;;;;;;;14.45;5.90;;;;;;;-4.16;85.05;99134.59;5010298;28;20041;-70
2021/01/15 06:25:17;;;;;;;5.85;3.38;;;;;;;-3.68;83.18;99153.38;5014257;28;20058;-69
2021/01/15 06:27:43;;;;;;;;;;;;;;;-3.52;82.16;99156.66;5015605;28;20022;-68
2021/01/15 06:30:13;;;;;;;9.45;4.28;;;;;;;-3.35;80.95;99160.78;5013945;28;19960;-69
2021/01/15 06:32:40;;;;;;;9.65;5.05;;;;;;;-3.48;81.64;99159.94;5015440;28;20034;-72
2021/01/15 06:35:06;;;;;;;11.23;4.65;;;;;;;-3.31;81.07;99167.56;5006686;28;20141;-72
2021/01/15 06:37:35;;;;;;;10.10;4.97;;;;;;;-3.35;81.16;99171.38;5009337;28;20022;-72
2021/01/15 06:40:11;;;;;;;9.75;4.95;;;;;;;-3.45;81.66;99175.59;5015344;28;20024;-70
2021/01/15 06:42:48;;;;;;;9.50;5.05;;;;;;;-3.39;81.42;99172.53;5005791;28;20015;-66
2021/01/15 06:45:15;;;;;;;8.43;4.88;;;;;;;-3.32;81.47;99179.94;4997389;28;20397;-70
2021/01/15 06:47:43;;;;;;;10.20;5.32;;;;;;;-3.32;81.65;99185.22;4980530;28;20038;-68
2021/01/15 06:50:13;;;;;;;15.80;5.35;;;;;;;-3.31;80.84;99186.91;4995872;28;20034;-68
2021/01/15 06:52:49;;;;;;;11.70;5.30;;;;;;;-3.20;81.22;99193.25;4988282;28;20097;-69
2021/01/15 06:55:17;;;;;;;12.88;5.75;;;;;;;-3.35;81.90;99201.31;4983209;28;20026;-71
2021/01/15 06:57:50;;;;;;;11.80;5.53;;;;;;;-3.60;81.89;99169.56;4993099;28;20026;-70
2021/01/15 07:00:20;;;;;;;9.70;5.45;;;;;;;-3.36;81.46;99196.97;4991339;28;20030;-70
2021/01/15 07:03:08;;;;;;;10.48;5.60;;;;;;;-3.53;81.91;99181.41;4978025;28;20082;-69
2021/01/15 07:05:44;;;;;;;14.23;6.38;;;;;;;-3.40;82.26;99211.38;4986329;28;20042;-69
2021/01/15 07:08:11;;;;;;;13.27;6.13;;;;;;;-3.42;82.08;99194.75;4992734;28;20046;-70
2021/01/15 07:10:36;;;;;;;12.75;5.70;;;;;;;-3.37;82.06;99200.56;4992723;28;20034;-71
2021/01/15 07:13:09;;;;;;;12.57;5.93;;;;;;;-3.51;82.30;99195.41;4991292;28;20034;-69
2021/01/15 07:15:41;;;;;;;16.40;6.15;;;;;;;-3.51;82.74;99203.31;4980663;28;20037;-70
2021/01/15 07:18:22;;;;;;;11.57;5.93;;;;;;;-3.66;82.67;99204.38;4991287;28;20030;-69
2021/01/15 07:20:49;;;;;;;14.23;5.82;;;;;;;-3.56;82.13;99216.00;4991989;28;20049;-69
2021/01/15 07:23:15;;;;;;;15.18;6.18;;;;;;;-3.49;82.25;99219.06;4990908;28;20026;-70
2021/01/15 07:25:48;;;;;;;14.82;6.65;;;;;;;-3.41;82.33;99220.25;4991828;28;20030;-70
2021/01/15 07:28:15;;;;;;;13.85;6.07;;;;;;;-3.32;81.31;99224.91;4991375;28;20069;-70
2021/01/15 07:30:40;;;;;;;12.23;6.00;;;;;;;-3.21;81.40;99213.59;4991715;28;20035;-70
2021/01/15 07:33:07;;;;;;;13.82;6.18;;;;;;;-3.12;81.42;99214.75;4990828;28;20026;-69
2021/01/15 07:35:36;;;;;;;15.65;7.32;;;;;;;-3.11;80.66;99219.94;4991742;28;20084;-70
2021/01/15 07:38:16;;;;;;;16.40;6.65;;;;;;;-2.96;80.67;99228.63;4990310;28;20030;-70
2021/01/15 07:40:42;;;;;;;15.18;6.40;;;;;;;-2.84;80.59;99229.53;4992059;28;20038;-70
2021/01/15 07:43:29;;;;;;;13.13;6.70;;;;;;;-2.71;79.79;99234.81;4990347;28;20022;-70
2021/01/15 07:45:55;;;;;;;14.05;6.10;;;;;;;-2.72;79.86;99219.91;4992214;28;20041;-70
2021/01/15 07:48:21;;;;;;;14.73;5.63;;;;;;;-2.43;79.42;99237.19;4990536;28;20026;-70
2021/01/15 07:50:47;;;;;;;9.88;5.10;;;;;;;-2.29;78.17;99207.03;4993468;28;20052;-70
2021/01/15 07:53:16;;;;;;;14.20;6.07;;;;;;;-1.96;77.97;99234.69;4996400;28;20022;-71
2021/01/15 07:55:50;;;;;;;10.77;5.10;;;;;;;-1.72;76.54;99239.97;4997571;28;20703;-70
2021/01/15 07:58:21;;;;;;;11.30;6.03;;;;;;;-1.12;75.17;99251.38;4992687;28;20280;-70
2021/01/15 08:00:48;;;;;;;10.07;5.18;;;;;;;-0.61;73.64;99239.44;4993472;28;20101;-70
2021/01/15 08:03:14;;;;;;;11.23;6.32;;;;;;;-0.14;71.77;99253.38;4991252;28;20373;-70
2021/01/15 08:05:42;;;;;;;10.63;5.70;;;;;;;0.39;70.25;99256.09;4981820;28;20544;-70
2021/01/15 08:08:12;;;;;;;10.52;5.55;;;;;;;1.04;67.84;99255.03;4991466;28;20117;-69
2021/01/15 08:10:48;;;;;;;9.80;5.32;;;;;;;1.42;66.87;99264.19;4990480;28;20693;-70
2021/01/15 08:13:20;;;;;;;9.27;4.93;;;;;;;1.78;65.63;99277.09;4990839;28;20054;-70
2021/01/15 08:15:45;;;;;;;10.93;5.43;;;;;;;1.95;64.56;99269.28;4990321;28;20026;-70
2021/01/15 08:18:11;;;;;;;8.60;5.28;;;;;;;1.87;64.59;99277.13;4991419;28;20093;-71
2021/01/15 08:20:37;;;;;;;12.45;5.60;;;;;;;1.78;65.19;99280.59;4993074;28;20022;-70
2021/01/15 08:23:02;;;;;;;9.70;5.18;;;;;;;1.73;65.03;99283.69;4990995;28;20428;-70
2021/01/15 08:25:29;;;;;;;11.25;5.53;;;;;;;2.17;63.81;99280.69;4987859;28;20033;-71
2021/01/15 08:27:55;;;;;;;9.82;5.55;;;;;;;3.26;61.04;99284.88;4987935;28;20022;-69
2021/01/15 08:30:21;;;;;;;9.73;5.35;;;;;;;4.38;57.53;99289.28;4988456;28;20516;-70
2021/01/15 08:32:47;;;;;;;9.52;5.18;;;;;;;4.93;56.75;99286.41;4984855;28;20029;-74
2021/01/15 08:35:24;;;;;;;8.90;5.30;;;;;;;5.76;53.30;99285.91;4986779;28;20109;-77
2021/01/15 08:38:00;;;;;;;9.23;5.72;;;;;;;6.92;51.63;99285.25;4980021;28;20033;-73
2021/01/15 08:40:38;;;;;;;12.52;5.50;;;;;;;4.94;53.95;99309.53;4987400;28;20500;-73
2021/01/15 08:43:04;;;;;;;7.85;4.78;;;;;;;5.82;54.68;99311.31;4990193;28;20022;-70
2021/01/15 08:45:31;;;;;;;11.68;6.85;;;;;;;5.72;52.67;99309.56;4992410;28;20489;-70
2021/01/15 08:47:57;;;;;;;9.18;5.65;;;;;;;6.11;52.38;99295.69;4991457;28;20057;-69
2021/01/15 08:50:24;;;;;;;8.25;4.95;;;;;;;6.38;52.33;99306.34;4976130;28;20522;-69
2021/01/15 08:52:50;;;;;;;9.45;5.32;;;;;;;7.33;49.86;99304.03;4991005;28;20111;-69
2021/01/15 08:55:17;;;;;;;9.85;5.70;;;;;;;8.17;47.43;99310.69;4991395;28;20065;-70
2021/01/15 08:57:43;;;;;;;10.57;5.30;;;;;;;9.99;44.34;99317.22;4988042;28;20099;-70
2021/01/15 09:00:10;;;;;;;7.93;5.43;;;;;;;10.75;44.33;99318.59;4990663;28;20021;-72
2021/01/15 09:02:40;;;;;;;10.23;5.75;;;;;;;9.82;44.33;99312.00;4992846;28;20033;-70
2021/01/15 09:05:15;;;;;;;9.88;6.40;;;;;;;10.07;43.50;99322.50;4988470;28;20023;-75
2021/01/15 09:07:42;;;;;;;8.02;5.20;;;;;;;10.87;43.32;99326.19;4990160;28;20211;-75
2021/01/15 09:10:12;;;;;;;8.32;5.88;;;;;;;11.08;41.85;99319.94;4992860;28;20018;-74
2021/01/15 09:12:45;;;;;;;8.40;5.50;;;;;;;11.74;41.29;99322.38;4989371;28;20050;-71
2021/01/15 09:15:27;;;;;;;7.18;5.45;;;;;;;11.85;40.59;99319.09;4983474;28;20019;-71
2021/01/15 09:17:58;;;;;;;7.65;5.25;;;;;;;11.73;40.50;99331.53;4994829;28;20026;-71
2021/01/15 09:20:24;;;;;;;7.93;5.78;;;;;;;11.60;40.92;99326.84;4997564;28;20068;-71
2021/01/15 09:22:49;;;;;;;9.70;5.90;;;;;;;10.99;41.24;99329.22;5010951;28;20393;-72
2021/01/15 09:25:16;;;;;;;8.90;5.55;;;;;;;11.66;41.59;99319.78;5009833;28;20506;-71
2021/01/15 09:27:43;;;;;;;7.95;5.93;;;;;;;11.45;40.92;99335.09;4994495;28;20034;-72
2021/01/15 09:30:10;;;;;;;8.07;5.60;;;;;;;11.69;39.52;99338.38;4994921;28;20053;-72
2021/01/15 09:32:40;;;;;;;9.15;5.57;;;;;;;12.44;38.43;99334.03;4988461;28;20030;-68
2021/01/15 09:35:06;;;;;;;10.18;5.20;;;;;;;13.06;38.23;99334.84;4994020;28;20116;-67
2021/01/15 09:37:31;;;;;;;8.77;5.55;;;;;;;13.27;37.33;99328.44;4994382;28;20061;-67
2021/01/15 09:39:57;;;;;;;7.50;5.10;;;;;;;12.77;38.73;99333.31;4988718;28;20022;-72
2021/01/15 09:42:22;;;;;;;7.28;5.20;;;;;;;11.58;39.23;99340.59;4994578;28;20476;-72
2021/01/15 09:44:47;;;;;;;7.32;5.07;;;;;;;12.17;38.01;99349.34;4994624;28;20507;-73
2021/01/15 09:47:13;;;;;;;9.75;5.00;;;;;;;13.12;38.13;99353.84;4988703;28;20030;-72
2021/01/15 09:49:38;;;;;;;6.25;4.63;;;;;;;14.54;36.33;99359.88;4995495;28;20424;-73
2021/01/15 09:52:05;;;;;;;7.50;5.22;;;;;;;13.03;37.00;99371.41;5010783;28;20030;-73
2021/01/15 09:54:30;;;;;;;6.97;4.95;;;;;;;13.19;37.41;99364.75;4993968;28;20049;-73
2021/01/15 09:56:56;;;;;;;8.68;5.43;;;;;;;13.48;37.16;99370.88;4991763;28;20030;-69
2021/01/15 09:59:21;;;;;;;7.97;5.57;;;;;;;12.47;38.57;99361.63;4986092;28;20034;-71
2021/01/15 10:01:47;;;;;;;8.63;4.65;;;;;;;13.52;36.74;99369.44;4994066;28;20109;-71
2021/01/15 10:04:14;;;;;;;6.65;4.97;;;;;;;13.62;37.41;99375.25;4994837;28;20030;-72
2021/01/15 10:06:44;;;;;;;8.70;5.50;;;;;;;13.90;35.99;99368.78;4995976;28;20026;-70
2021/01/15 10:09:11;;;;;;;7.50;5.20;;;;;;;13.90;36.06;99366.06;4996499;28;20027;-69
2021/01/15 10:11:39;;;;;;;6.55;5.18;;;;;;;14.68;34.98;99357.91;4996698;28;20057;-72
2021/01/15 10:14:06;;;;;;;7.40;5.20;;;;;;;15.18;34.56;99379.03;4995955;28;20031;-72
2021/01/15 10:16:35;;;;;;;6.90;4.97;;;;;;;13.65;35.63;99374.00;4992926;28;20096;-72
2021/01/15 10:19:00;;;;;;;6.40;5.10;;;;;;;14.76;35.29;99370.47;4997167;28;20034;-72
2021/01/15 10:21:28;;;;;;;7.03;4.72;;;;;;;15.06;35.07;99377.00;4994968;28;20088;-72
2021/01/15 10:23:55;;;;;;;6.05;4.82;;;;;;;15.00;34.62;99375.13;4995329;28;20100;-72
2021/01/15 10:26:23;;;;;;;6.35;5.38;;;;;;;15.71;34.64;99381.41;4993187;28;20497;-72
2021/01/15 10:28:49;;;;;;;6.13;4.78;;;;;;;16.06;33.24;99373.53;4995233;28;20041;-72
2021/01/15 10:31:14;;;;;;;6.53;5.25;;;;;;;16.10;33.31;99369.28;4993730;28;20022;-72
2021/01/15 10:33:40;;;;;;;9.07;5.22;;;;;;;17.06;31.35;99366.91;4995535;28;20026;-72
2021/01/15 10:36:07;;;;;;;6.72;5.43;;;;;;;16.19;32.72;99378.88;4993257;28;20022;-72
2021/01/15 10:38:32;;;;;;;8.20;5.63;;;;;;;15.35;34.28;99374.72;4994748;28;20026;-72
2021/01/15 10:40:58;;;;;;;7.95;5.70;;;;;;;16.36;33.52;99370.91;4995053;28;20022;-72
2021/01/15 10:43:24;;;;;;;6.35;4.85;;;;;;;15.27;33.88;99372.25;4994030;28;20417;-72
2021/01/15 10:45:49;;;;;;;6.65;5.18;;;;;;;16.44;32.96;99377.97;4994565;28;20041;-72
2021/01/15 10:48:14;;;;;;;7.30;5.97;;;;;;;14.87;35.44;99383.38;4995253;28;20400;-72
2021/01/15 10:50:39;;;;;;;7.63;5.28;;;;;;;15.61;34.64;99383.75;4994236;28;20112;-72
2021/01/15 10:53:05;;;;;;;6.50;5.63;;;;;;;15.38;35.16;99374.28;4990124;28;20019;-72
2021/01/15 10:55:30;;;;;;;7.88;5.95;;;;;;;16.49;34.51;99380.00;4991177;28;20030;-72
2021/01/15 10:57:55;;;;;;;8.07;6.22;;;;;;;15.81;34.92;99384.47;4992637;28;20026;-72
2021/01/15 11:00:21;;;;;;;7.80;6.25;;;;;;;16.98;33.24;99376.28;4990674;28;20121;-72
2021/01/15 11:02:48;;;;;;;8.45;6.15;;;;;;;17.29;31.88;99375.19;4990698;28;20026;-71
2021/01/15 11:05:13;;;;;;;8.20;6.28;;;;;;;17.25;33.10;99379.47;4989762;28;20039;-72
2021/01/15 11:07:39;;;;;;;8.20;6.35;;;;;;;16.39;34.25;99372.34;4990856;28;20022;-72
2021/01/15 11:10:05;;;;;;;8.95;6.40;;;;;;;15.36;35.31;99389.19;4991428;28;20092;-72
2021/01/15 11:12:30;;;;;;;9.35;6.68;;;;;;;15.48;35.40;99384.69;4991728;28;20026;-72
2021/01/15 11:14:56;;;;;;;7.60;6.38;;;;;;;15.51;35.13;99374.19;4992442;28;20081;-72
2021/01/15 11:17:21;;;;;;;9.13;6.53;;;;;;;16.17;34.18;99366.50;4992562;28;20030;-72
2021/01/15 11:19:46;;;;;;;6.32;5.45;;;;;;;16.14;34.49;99394.25;4991782;28;20033;-72
2021/01/15 11:22:11;;;;;;;7.45;6.25;;;;;;;16.17;34.51;99380.16;4990474;28;20034;-71
2021/01/15 11:24:37;;;;;;;10.93;6.50;;;;;;;15.66;34.94;99383.94;4983290;28;20093;-72
2021/01/15 11:27:02;;;;;;;8.52;6.38;;;;;;;15.88;34.55;99384.41;4985169;28;20040;-71
2021/01/15 11:29:27;;;;;;;7.78;6.38;;;;;;;16.25;34.81;99387.22;4997194;28;20041;-72
2021/01/15 11:31:53;;;;;;;8.70;6.63;;;;;;;16.58;33.33;99384.09;4993239;28;20034;-71
2021/01/15 11:34:20;;;;;;;7.93;6.28;;;;;;;15.71;34.89;99384.13;4991497;28;20088;-72
2021/01/15 11:36:48;;;;;;;8.38;6.75;;;;;;;14.02;36.86;99372.53;4979141;28;20069;-71
2021/01/15 11:39:13;;;;;;;8.20;5.85;;;;;;;14.81;36.69;99381.53;4984951;28;20037;-72
2021/01/15 11:41:39;;;;;;;7.57;6.05;;;;;;;15.03;36.09;99382.03;4989000;28;20034;-72